createdAt,value
2019-05-10T00:00:33.665Z,14.10
2019-05-10T00:03:19.305Z,14.10
2019-05-10T00:06:04.847Z,14.20
2019-05-10T00:08:47.033Z,14.30
2019-05-10T00:11:38.393Z,14.20
2019-05-10T00:14:27.653Z,14.30
2019-05-10T00:16:59.522Z,14.30
2019-05-10T00:19:27.197Z,14.30
2019-05-10T00:21:54.829Z,14.20
2019-05-10T00:24:22.522Z,14.10
2019-05-10T00:26:50.264Z,14.20
2019-05-10T00:29:18.932Z,14.10
2019-05-10T00:31:46.619Z,14.10
2019-05-10T00:34:14.227Z,14.10
2019-05-10T00:36:41.934Z,14.00
2019-05-10T00:39:09.603Z,14.00
2019-05-10T00:41:37.214Z,14.00
2019-05-10T00:44:04.898Z,14.00
2019-05-10T00:46:32.521Z,14.00
2019-05-10T00:49:00.232Z,13.90
2019-05-10T00:51:27.875Z,13.90
2019-05-10T00:53:55.536Z,13.90
2019-05-10T00:56:23.230Z,13.90
2019-05-10T00:58:50.913Z,13.90
2019-05-10T01:01:19.586Z,13.90
2019-05-10T01:03:47.181Z,13.90
2019-05-10T01:06:14.918Z,13.90
2019-05-10T01:08:42.598Z,13.80
2019-05-10T01:11:10.231Z,13.80
2019-05-10T01:13:37.876Z,13.70
2019-05-10T01:16:05.512Z,13.80
2019-05-10T01:18:33.321Z,13.90
2019-05-10T01:21:00.941Z,13.90
2019-05-10T01:23:28.613Z,13.90
2019-05-10T01:25:56.347Z,14.00
2019-05-10T01:28:24.072Z,14.10
2019-05-10T01:30:51.681Z,14.10
2019-05-10T01:33:19.441Z,14.10
2019-05-10T01:35:47.062Z,14.00
2019-05-10T01:38:14.723Z,13.80
2019-05-10T01:40:42.323Z,13.70
2019-05-10T01:43:10.022Z,13.80
2019-05-10T01:45:37.643Z,13.70
2019-05-10T01:48:05.323Z,13.60
2019-05-10T01:50:32.924Z,13.70
2019-05-10T01:53:00.579Z,13.80
2019-05-10T01:55:28.239Z,13.70
2019-05-10T01:57:55.879Z,13.70
2019-05-10T02:00:23.753Z,13.70
2019-05-10T02:02:51.463Z,13.70
2019-05-10T02:05:19.181Z,13.70
2019-05-10T02:07:46.913Z,13.70
2019-05-10T02:10:14.705Z,13.70
2019-05-10T02:12:42.383Z,13.70
2019-05-10T02:15:10.894Z,13.70
2019-05-10T02:17:38.645Z,13.80
2019-05-10T02:20:06.672Z,13.70
2019-05-10T02:22:34.365Z,13.70
2019-05-10T02:25:01.995Z,13.70
2019-05-10T02:27:29.733Z,13.80
2019-05-10T02:29:57.401Z,13.80
2019-05-10T02:32:25.078Z,13.80
2019-05-10T02:34:52.721Z,13.80
2019-05-10T02:37:20.333Z,13.70
2019-05-10T02:39:48.274Z,13.80
2019-05-10T02:42:15.994Z,13.70
2019-05-10T02:44:43.638Z,13.60
2019-05-10T02:47:11.252Z,13.50
2019-05-10T02:49:39.021Z,13.50
2019-05-10T02:52:06.890Z,13.60
2019-05-10T02:54:34.794Z,13.60
2019-05-10T02:57:02.755Z,13.50
2019-05-10T02:59:31.891Z,13.50
2019-05-10T03:02:03.485Z,13.60
2019-05-10T03:04:34.457Z,13.60
2019-05-10T03:07:03.516Z,13.60
2019-05-10T03:09:32.545Z,13.50
2019-05-10T03:12:22.161Z,13.40
2019-05-10T03:14:52.778Z,13.30
2019-05-10T03:17:20.383Z,13.30
2019-05-10T03:19:50.018Z,13.30
2019-05-10T03:22:17.857Z,13.20
2019-05-10T03:24:45.493Z,13.10
2019-05-10T03:27:13.153Z,13.10
2019-05-10T03:29:40.784Z,13.10
2019-05-10T03:32:08.523Z,13.00
2019-05-10T03:34:36.203Z,13.00
2019-05-10T03:37:03.890Z,12.90
2019-05-10T03:39:31.523Z,12.90
2019-05-10T03:41:59.251Z,12.80
2019-05-10T03:44:26.897Z,12.80
2019-05-10T03:46:54.529Z,12.70
2019-05-10T03:49:22.173Z,12.60
2019-05-10T03:51:50.802Z,12.60
2019-05-10T03:54:18.455Z,12.50
2019-05-10T03:56:46.130Z,12.60
2019-05-10T03:59:13.830Z,12.60
2019-05-10T04:01:41.475Z,12.60
2019-05-10T04:04:09.831Z,12.70
2019-05-10T04:06:37.653Z,12.70
2019-05-10T04:09:05.598Z,12.70
2019-05-10T04:11:33.258Z,12.60
2019-05-10T04:14:00.897Z,12.60
2019-05-10T04:16:28.522Z,12.50
2019-05-10T04:18:56.214Z,12.40
2019-05-10T04:21:23.845Z,12.40
2019-05-10T04:23:51.607Z,12.40
2019-05-10T04:26:19.266Z,12.40
2019-05-10T04:28:46.883Z,12.40
2019-05-10T04:31:14.785Z,12.40
2019-05-10T04:33:42.397Z,12.40
2019-05-10T04:36:12.769Z,12.40
2019-05-10T04:38:39.560Z,12.40
2019-05-10T04:41:07.306Z,12.30
2019-05-10T04:43:34.990Z,12.20
2019-05-10T04:46:02.732Z,12.10
2019-05-10T04:48:30.464Z,12.10
2019-05-10T04:50:58.098Z,12.20
2019-05-10T04:53:25.736Z,12.30
2019-05-10T04:55:53.352Z,12.30
2019-05-10T04:58:21.029Z,12.40
2019-05-10T05:00:48.658Z,12.40
2019-05-10T05:03:16.363Z,12.40
2019-05-10T05:05:43.974Z,12.40
2019-05-10T05:08:11.621Z,12.40
2019-05-10T05:10:39.241Z,12.50
2019-05-10T05:13:06.887Z,12.60
2019-05-10T05:15:34.542Z,12.60
2019-05-10T05:18:02.270Z,12.50
2019-05-10T05:20:29.891Z,12.60
2019-05-10T05:22:57.522Z,12.60
2019-05-10T05:25:25.178Z,12.70
2019-05-10T05:28:06.742Z,12.70
2019-05-10T05:30:22.850Z,12.70
2019-05-10T05:32:50.486Z,12.70
2019-05-10T05:35:18.172Z,13.00
2019-05-10T05:37:45.781Z,13.10
2019-05-10T05:40:13.568Z,13.20
2019-05-10T05:42:41.184Z,13.20
2019-05-10T05:45:09.016Z,13.20
2019-05-10T05:47:37.643Z,13.20
2019-05-10T05:50:07.295Z,13.20
2019-05-10T05:52:35.038Z,13.20
2019-05-10T05:55:02.898Z,13.40
2019-05-10T05:57:31.698Z,13.50
2019-05-10T06:00:03.968Z,13.60
2019-05-10T06:02:29.117Z,13.80
2019-05-10T06:04:56.998Z,13.90
2019-05-10T06:07:24.618Z,13.80
2019-05-10T06:09:52.257Z,13.80
2019-05-10T06:12:19.886Z,13.80
2019-05-10T06:14:49.639Z,13.80
2019-05-10T06:17:17.043Z,14.00
2019-05-10T06:19:44.782Z,14.00
2019-05-10T06:22:12.591Z,14.00
2019-05-10T06:24:40.225Z,14.00
2019-05-10T06:27:07.956Z,14.00
2019-05-10T06:29:35.573Z,14.10
2019-05-10T06:32:03.256Z,14.10
2019-05-10T06:34:31.984Z,14.20
2019-05-10T06:37:00.513Z,14.20
2019-05-10T06:39:28.137Z,14.40
2019-05-10T06:41:58.217Z,14.60
2019-05-10T06:44:31.138Z,14.70
2019-05-10T06:46:54.861Z,14.60
2019-05-10T06:49:22.510Z,14.50
2019-05-10T06:51:50.997Z,14.40
2019-05-10T06:54:18.805Z,14.40
2019-05-10T06:56:46.433Z,14.60
2019-05-10T06:59:19.076Z,14.60
2019-05-10T07:01:45.918Z,14.70
2019-05-10T07:04:13.310Z,14.70
2019-05-10T07:06:40.971Z,14.70
2019-05-10T07:09:08.749Z,14.40
2019-05-10T07:11:36.378Z,14.40
2019-05-10T07:14:04.601Z,14.60
2019-05-10T07:16:32.754Z,14.90
2019-05-10T07:19:02.019Z,15.30
2019-05-10T07:21:30.090Z,15.10
2019-05-10T07:23:57.725Z,15.10
2019-05-10T07:26:26.740Z,14.90
2019-05-10T07:28:57.601Z,14.90
2019-05-10T07:31:24.407Z,14.90
2019-05-10T07:33:52.155Z,15.10
2019-05-10T07:36:20.753Z,15.30
2019-05-10T07:38:49.310Z,15.40
2019-05-10T07:41:19.351Z,15.40
2019-05-10T07:43:48.197Z,15.70
2019-05-10T07:46:16.147Z,15.80
2019-05-10T07:48:47.389Z,16.00
2019-05-10T07:51:13.413Z,15.90
2019-05-10T07:53:41.113Z,16.00
2019-05-10T07:56:08.732Z,15.90
2019-05-10T07:58:38.068Z,15.90
2019-05-10T08:01:06.669Z,15.80
2019-05-10T08:03:35.566Z,15.70
2019-05-10T08:06:03.923Z,15.60
2019-05-10T08:08:32.061Z,15.90
2019-05-10T08:10:59.712Z,16.20
2019-05-10T08:13:28.427Z,16.40
2019-05-10T08:15:56.261Z,16.30
2019-05-10T08:18:25.452Z,16.20
2019-05-10T08:20:57.810Z,16.20
2019-05-10T08:23:27.755Z,16.40
2019-05-10T08:25:53.685Z,16.20
2019-05-10T08:28:22.815Z,16.20
2019-05-10T08:30:53.436Z,16.40
2019-05-10T08:33:22.384Z,16.60
2019-05-10T08:35:52.518Z,16.80
2019-05-10T08:38:21.780Z,16.90
2019-05-10T08:40:49.148Z,17.00
2019-05-10T08:43:17.145Z,16.80
2019-05-10T08:45:49.242Z,16.70
2019-05-10T08:48:14.546Z,16.80
2019-05-10T08:50:50.782Z,16.70
2019-05-10T08:53:16.463Z,16.80
2019-05-10T08:55:43.354Z,16.80
2019-05-10T08:58:12.386Z,16.80
2019-05-10T09:00:50.662Z,16.40
2019-05-10T09:03:17.880Z,16.20
2019-05-10T09:05:40.071Z,16.20
2019-05-10T09:08:13.677Z,16.30
2019-05-10T09:10:38.191Z,16.30
2019-05-10T09:13:05.837Z,16.30
2019-05-10T09:15:33.476Z,16.50
2019-05-10T09:18:04.158Z,16.40
2019-05-10T09:20:31.831Z,16.40
2019-05-10T09:23:02.202Z,16.50
2019-05-10T09:25:30.973Z,16.70
2019-05-10T09:28:02.309Z,16.90
2019-05-10T09:30:35.000Z,17.20
2019-05-10T09:33:08.785Z,17.50
2019-05-10T09:35:32.960Z,17.60
2019-05-10T09:38:01.956Z,17.40
2019-05-10T09:40:29.837Z,17.30
2019-05-10T09:42:59.465Z,17.40
2019-05-10T09:45:27.029Z,17.40
2019-05-10T09:47:54.655Z,17.50
2019-05-10T09:50:22.961Z,17.30
2019-05-10T09:52:50.742Z,17.20
2019-05-10T09:55:18.373Z,16.90
2019-05-10T09:57:47.976Z,16.70
2019-05-10T10:00:17.482Z,16.30
2019-05-10T10:02:47.882Z,16.20
2019-05-10T10:05:17.791Z,16.20
2019-05-10T10:07:45.071Z,16.30
2019-05-10T10:10:17.869Z,16.50
2019-05-10T10:12:42.654Z,16.80
2019-05-10T10:15:13.949Z,17.00
2019-05-10T10:17:42.548Z,17.00
2019-05-10T10:20:10.171Z,16.90
2019-05-10T10:22:38.279Z,16.90
2019-05-10T10:25:07.473Z,16.90
2019-05-10T10:27:37.154Z,16.80
2019-05-10T10:30:06.660Z,16.70
2019-05-10T10:32:37.626Z,16.90
2019-05-10T10:35:07.973Z,16.80
2019-05-10T10:37:37.673Z,16.80
2019-05-10T10:40:07.904Z,16.80
2019-05-10T10:42:37.826Z,16.70
2019-05-10T10:45:07.377Z,16.60
2019-05-10T10:47:35.165Z,16.80
2019-05-10T10:50:07.828Z,16.80
2019-05-10T10:52:32.621Z,16.80
2019-05-10T10:55:00.289Z,16.90
2019-05-10T10:57:28.865Z,17.10
2019-05-10T10:59:57.534Z,17.40
2019-05-10T11:02:32.560Z,17.60
2019-05-10T11:04:54.821Z,17.70
2019-05-10T11:07:22.456Z,17.70
2019-05-10T11:09:55.901Z,17.80
2019-05-10T11:12:23.999Z,18.00
2019-05-10T11:14:50.313Z,18.20
2019-05-10T11:17:17.994Z,18.10
2019-05-10T11:19:45.757Z,18.20
2019-05-10T11:22:13.365Z,18.20
2019-05-10T11:24:41.020Z,18.20
2019-05-10T11:27:13.135Z,18.30
2019-05-10T11:29:38.293Z,18.40
2019-05-10T11:32:16.818Z,18.50
2019-05-10T11:34:38.841Z,18.70
2019-05-10T11:37:06.193Z,18.50
2019-05-10T11:39:41.805Z,18.40
2019-05-10T11:42:07.233Z,18.50
2019-05-10T11:44:32.893Z,18.30
2019-05-10T11:47:01.523Z,18.50
2019-05-10T11:49:30.826Z,18.60
2019-05-10T11:51:58.872Z,18.70
2019-05-10T11:54:27.122Z,18.50
2019-05-10T11:56:58.555Z,18.60
2019-05-10T11:59:27.445Z,18.50
2019-05-10T12:01:57.988Z,18.50
2019-05-10T12:04:35.628Z,18.50
2019-05-10T12:06:52.956Z,18.40
2019-05-10T12:09:24.411Z,18.30
2019-05-10T12:11:53.088Z,18.30
2019-05-10T12:14:21.975Z,18.10
2019-05-10T12:16:54.206Z,18.00
2019-05-10T12:19:21.185Z,18.00
2019-05-10T12:21:52.574Z,17.70
2019-05-10T12:24:33.591Z,17.40
2019-05-10T12:27:13.978Z,17.10
2019-05-10T12:29:17.605Z,17.10
2019-05-10T12:31:47.386Z,17.20
2019-05-10T12:34:14.809Z,17.30
2019-05-10T12:36:43.573Z,17.50
2019-05-10T12:39:11.710Z,17.90
2019-05-10T12:41:44.674Z,18.30
2019-05-10T12:44:11.095Z,18.60
2019-05-10T12:46:41.903Z,18.60
2019-05-10T12:49:08.270Z,18.50
2019-05-10T12:51:35.970Z,18.20
2019-05-10T12:54:03.590Z,17.90
2019-05-10T12:56:34.902Z,17.80
2019-05-10T12:59:01.784Z,17.60
2019-05-10T13:01:31.896Z,17.50
2019-05-10T13:04:01.921Z,17.50
2019-05-10T13:06:28.594Z,17.60
2019-05-10T13:08:56.254Z,17.70
2019-05-10T13:11:25.444Z,17.90
2019-05-10T13:13:53.465Z,17.80
2019-05-10T13:16:21.074Z,17.70
2019-05-10T13:18:51.988Z,17.70
2019-05-10T13:21:20.866Z,17.80
2019-05-10T13:23:53.324Z,17.80
2019-05-10T13:26:17.486Z,17.80
2019-05-10T13:28:45.132Z,18.10
2019-05-10T13:31:14.981Z,18.20
2019-05-10T13:33:44.421Z,18.20
2019-05-10T13:36:11.898Z,18.10
2019-05-10T13:38:43.128Z,18.20
2019-05-10T13:41:09.129Z,18.20
2019-05-10T13:43:36.787Z,18.20
2019-05-10T13:46:04.401Z,18.20
2019-05-10T13:48:32.062Z,18.20
2019-05-10T13:50:59.772Z,18.20
2019-05-10T13:53:27.506Z,18.40
2019-05-10T13:55:55.129Z,18.40
2019-05-10T13:58:22.842Z,18.50
2019-05-10T14:00:50.465Z,18.80
2019-05-10T14:03:18.098Z,18.80
2019-05-10T14:05:45.750Z,18.70
2019-05-10T14:08:13.412Z,18.30
2019-05-10T14:10:41.045Z,18.10
2019-05-10T14:13:08.812Z,18.20
2019-05-10T14:15:36.426Z,18.20
2019-05-10T14:18:04.090Z,18.20
2019-05-10T14:20:31.745Z,18.20
2019-05-10T14:22:59.425Z,18.00
2019-05-10T14:25:29.678Z,18.00
2019-05-10T14:27:56.794Z,17.90
2019-05-10T14:30:24.427Z,18.00
2019-05-10T14:32:52.094Z,18.10
2019-05-10T14:35:22.580Z,18.30
2019-05-10T14:37:49.327Z,18.20
2019-05-10T14:40:27.402Z,18.30
2019-05-10T14:42:46.539Z,18.30
2019-05-10T14:45:14.309Z,18.50
2019-05-10T14:47:47.949Z,18.60
2019-05-10T14:50:12.877Z,18.70
2019-05-10T14:52:40.572Z,18.80
2019-05-10T14:55:18.036Z,19.00
2019-05-10T14:57:46.030Z,19.00
2019-05-10T15:00:14.055Z,19.00
2019-05-10T15:02:41.737Z,19.00
2019-05-10T15:05:15.612Z,19.00
2019-05-10T15:07:39.219Z,19.00
2019-05-10T15:10:07.058Z,19.00
2019-05-10T15:12:34.701Z,19.10
2019-05-10T15:15:02.342Z,19.00
2019-05-10T15:17:31.035Z,19.00
2019-05-10T15:20:00.054Z,19.10
2019-05-10T15:22:27.973Z,19.20
2019-05-10T15:24:55.738Z,19.10
2019-05-10T15:27:24.049Z,18.80
2019-05-10T15:29:52.834Z,18.60
2019-05-10T15:32:20.497Z,18.60
2019-05-10T15:35:04.523Z,18.70
2019-05-10T15:37:17.960Z,18.90
2019-05-10T15:39:45.693Z,18.90
2019-05-10T15:42:13.312Z,19.00
2019-05-10T15:44:40.944Z,18.90
2019-05-10T15:47:14.532Z,18.80
2019-05-10T15:49:38.344Z,18.70
2019-05-10T15:52:16.729Z,18.80
2019-05-10T15:54:38.181Z,18.90
2019-05-10T15:57:09.652Z,18.90
2019-05-10T15:59:35.210Z,18.90
2019-05-10T16:02:03.323Z,18.90
2019-05-10T16:04:30.999Z,19.00
2019-05-10T16:06:58.621Z,19.00
2019-05-10T16:09:27.023Z,18.90
2019-05-10T16:11:56.033Z,19.00
2019-05-10T16:14:24.226Z,19.20
2019-05-10T16:16:51.920Z,19.10
2019-05-10T16:19:20.340Z,19.00
2019-05-10T16:21:52.220Z,18.90
2019-05-10T16:24:25.297Z,18.70
2019-05-10T16:26:47.357Z,18.80
2019-05-10T16:29:14.981Z,18.80
2019-05-10T16:31:42.753Z,19.00
2019-05-10T16:34:10.382Z,19.10
2019-05-10T16:36:38.019Z,19.00
2019-05-10T16:39:06.283Z,19.20
2019-05-10T16:41:33.957Z,19.30
2019-05-10T16:44:01.636Z,19.40
2019-05-10T16:46:29.428Z,19.30
2019-05-10T16:48:57.089Z,19.30
2019-05-10T16:51:24.751Z,19.40
2019-05-10T16:53:52.422Z,19.50
2019-05-10T16:56:21.304Z,19.40
2019-05-10T16:58:53.286Z,19.20
2019-05-10T17:01:24.813Z,18.90
2019-05-10T17:03:51.076Z,18.80
2019-05-10T17:06:17.827Z,18.90
2019-05-10T17:08:45.542Z,19.00
2019-05-10T17:11:13.181Z,19.00
2019-05-10T17:13:41.613Z,19.10
2019-05-10T17:16:11.656Z,19.20
2019-05-10T17:18:39.941Z,19.30
2019-05-10T17:21:07.612Z,19.40
2019-05-10T17:23:35.253Z,19.60
2019-05-10T17:26:02.962Z,19.60
2019-05-10T17:28:35.270Z,19.50
2019-05-10T17:31:07.593Z,19.50
2019-05-10T17:33:29.889Z,19.40
2019-05-10T17:36:07.884Z,19.30
2019-05-10T17:38:27.173Z,19.30
2019-05-10T17:40:54.806Z,19.40
2019-05-10T17:43:22.866Z,19.50
2019-05-10T17:45:50.658Z,19.50
2019-05-10T17:48:18.297Z,19.50
2019-05-10T17:50:46.141Z,19.40
2019-05-10T17:53:13.835Z,19.20
2019-05-10T17:55:41.524Z,19.10
2019-05-10T17:58:09.285Z,19.10
2019-05-10T18:00:36.972Z,19.00
2019-05-10T18:03:04.616Z,18.90
2019-05-10T18:05:32.567Z,18.70
2019-05-10T18:08:00.217Z,18.70
2019-05-10T18:10:27.891Z,18.70
2019-05-10T18:12:57.287Z,18.70
2019-05-10T18:15:27.633Z,18.70
2019-05-10T18:17:57.613Z,18.70
2019-05-10T18:20:24.239Z,18.60
2019-05-10T18:22:51.905Z,18.50
2019-05-10T18:25:22.147Z,18.50
2019-05-10T18:27:49.141Z,18.40
2019-05-10T18:30:17.018Z,18.40
2019-05-10T18:32:44.704Z,18.20
2019-05-10T18:35:15.271Z,18.20
2019-05-10T18:37:42.055Z,18.00
2019-05-10T18:40:10.225Z,17.90
2019-05-10T18:42:37.913Z,17.70
2019-05-10T18:45:05.741Z,17.70
2019-05-10T18:47:33.402Z,17.70
2019-05-10T18:50:01.042Z,17.70
2019-05-10T18:52:28.705Z,17.70
2019-05-10T18:54:56.361Z,17.60
2019-05-10T18:57:23.974Z,17.60
2019-05-10T18:59:51.721Z,17.40
2019-05-10T19:02:19.929Z,17.30
2019-05-10T19:04:52.224Z,17.10
2019-05-10T19:07:17.384Z,17.00
2019-05-10T19:09:45.212Z,17.00
2019-05-10T19:12:18.609Z,16.90
2019-05-10T19:14:42.373Z,16.90
2019-05-10T19:17:11.094Z,16.80
2019-05-10T19:19:42.145Z,16.80
2019-05-10T19:22:09.266Z,16.70
2019-05-10T19:24:39.008Z,16.50
2019-05-10T19:27:09.302Z,16.60
2019-05-10T19:29:38.578Z,16.60
2019-05-10T19:32:11.660Z,16.50
2019-05-10T19:34:36.600Z,16.50
2019-05-10T19:37:04.247Z,16.40
2019-05-10T19:39:31.896Z,16.40
2019-05-10T19:42:03.982Z,16.40
2019-05-10T19:44:29.257Z,16.30
2019-05-10T19:46:56.921Z,16.20
2019-05-10T19:49:24.598Z,16.30
2019-05-10T19:51:53.333Z,16.30
2019-05-10T19:54:21.344Z,16.30
2019-05-10T19:56:49.169Z,16.20
2019-05-10T19:59:16.816Z,16.20
2019-05-10T20:01:45.236Z,16.20
2019-05-10T20:04:13.333Z,16.10
2019-05-10T20:06:41.008Z,16.20
2019-05-10T20:09:08.660Z,16.00
2019-05-10T20:11:36.304Z,16.10
2019-05-10T20:14:07.315Z,16.10
2019-05-10T20:16:33.557Z,16.20
2019-05-10T20:19:01.256Z,16.10
2019-05-10T20:21:28.902Z,16.10
2019-05-10T20:23:56.595Z,16.10
2019-05-10T20:26:24.346Z,16.00
2019-05-10T20:28:52.034Z,16.10
2019-05-10T20:31:19.641Z,16.00
2019-05-10T20:33:47.453Z,15.90
2019-05-10T20:36:15.150Z,15.80
2019-05-10T20:38:42.832Z,15.60
2019-05-10T20:41:10.637Z,15.80
2019-05-10T20:43:38.386Z,15.90
2019-05-10T20:46:07.239Z,16.00
2019-05-10T20:48:35.024Z,16.00
2019-05-10T20:51:02.697Z,16.00
2019-05-10T20:53:30.366Z,16.10
2019-05-10T20:55:58.060Z,15.90
2019-05-10T20:58:25.724Z,15.90
2019-05-10T21:00:53.800Z,15.80
2019-05-10T21:03:21.528Z,15.80
2019-05-10T21:05:49.225Z,15.70
2019-05-10T21:08:17.590Z,15.70
2019-05-10T21:10:46.109Z,15.80
2019-05-10T21:13:13.814Z,15.80
2019-05-10T21:15:41.601Z,15.80
2019-05-10T21:18:09.278Z,15.80
2019-05-10T21:20:37.001Z,15.90
2019-05-10T21:23:04.686Z,15.80
2019-05-10T21:25:32.384Z,15.70
2019-05-10T21:28:01.256Z,15.60
2019-05-10T21:30:29.036Z,15.70
2019-05-10T21:32:56.702Z,15.70
2019-05-10T21:35:24.416Z,15.80
2019-05-10T21:37:52.080Z,15.70
2019-05-10T21:40:19.729Z,15.70
2019-05-10T21:42:47.373Z,15.60
2019-05-10T21:45:15.147Z,15.70
2019-05-10T21:47:51.102Z,15.70
2019-05-10T21:50:12.459Z,15.90
2019-05-10T21:52:40.245Z,16.00
2019-05-10T21:55:08.990Z,16.00
2019-05-10T21:57:36.643Z,16.00
2019-05-10T22:00:05.294Z,16.00
2019-05-10T22:02:34.893Z,15.90
2019-05-10T22:05:02.605Z,15.90
2019-05-10T22:07:30.440Z,16.00
2019-05-10T22:09:58.206Z,16.10
2019-05-10T22:12:25.844Z,16.00
2019-05-10T22:14:53.497Z,15.90
2019-05-10T22:17:21.260Z,15.90
2019-05-10T22:19:48.897Z,15.90
2019-05-10T22:22:16.557Z,15.90
2019-05-10T22:24:44.203Z,15.90
2019-05-10T22:27:12.174Z,15.90
2019-05-10T22:29:39.837Z,15.80
2019-05-10T22:32:07.482Z,15.70
2019-05-10T22:34:35.217Z,15.70
2019-05-10T22:37:02.830Z,15.70
2019-05-10T22:39:30.464Z,15.70
2019-05-10T22:41:58.105Z,15.70
2019-05-10T22:44:25.758Z,15.60
2019-05-10T22:46:53.406Z,15.60
2019-05-10T22:49:21.042Z,15.60
2019-05-10T22:51:48.669Z,15.60
2019-05-10T22:54:16.318Z,15.70
2019-05-10T22:56:43.945Z,15.70
2019-05-10T22:59:11.618Z,15.70
2019-05-10T23:01:39.393Z,15.60
2019-05-10T23:04:07.081Z,15.60
2019-05-10T23:06:34.745Z,15.60
2019-05-10T23:09:03.162Z,15.50
2019-05-10T23:11:31.009Z,15.30
2019-05-10T23:13:58.625Z,15.30
2019-05-10T23:16:26.303Z,15.40
2019-05-10T23:18:53.831Z,15.50
2019-05-10T23:21:21.501Z,15.50
2019-05-10T23:23:49.108Z,15.60
2019-05-10T23:26:16.749Z,15.50
2019-05-10T23:28:44.383Z,15.50
2019-05-10T23:31:12.214Z,15.50
2019-05-10T23:33:39.964Z,15.50
2019-05-10T23:36:07.613Z,15.50
2019-05-10T23:38:35.307Z,15.60
2019-05-10T23:41:02.918Z,15.50
2019-05-10T23:43:30.613Z,15.40
2019-05-10T23:45:58.269Z,15.60
2019-05-10T23:48:25.937Z,15.60
2019-05-10T23:50:53.566Z,15.50
2019-05-10T23:53:21.223Z,15.50
2019-05-10T23:55:48.852Z,15.50
2019-05-10T23:58:16.512Z,15.50
